createdAt,value
2022-09-28T00:02:51.716Z,24.73
2022-09-28T00:05:54.721Z,21.27
2022-09-28T00:08:59.221Z,19.37
2022-09-28T00:12:03.251Z,28.58
2022-09-28T00:15:06.515Z,15.65
2022-09-28T00:18:09.464Z,19.08
2022-09-28T00:21:15.730Z,24.73
2022-09-28T00:24:26.674Z,19.27
2022-09-28T00:27:31.462Z,20.90
2022-09-28T00:30:34.504Z,20.50
2022-09-28T00:33:37.558Z,27.42
2022-09-28T00:36:46.132Z,19.53
2022-09-28T00:39:50.478Z,18.57
2022-09-28T00:42:53.436Z,17.33
2022-09-28T00:46:06.866Z,19.42
2022-09-28T00:49:16.650Z,17.88
2022-09-28T00:52:28.246Z,15.67
2022-09-28T00:55:39.641Z,21.00
2022-09-28T00:58:48.082Z,19.85
2022-09-28T01:01:51.834Z,15.55
2022-09-28T01:04:57.942Z,14.27
2022-09-28T01:08:03.525Z,15.50
2022-09-28T01:11:07.777Z,16.17
2022-09-28T01:14:14.085Z,22.27
2022-09-28T01:17:27.346Z,19.92
2022-09-28T01:20:43.267Z,29.40
2022-09-28T01:24:11.189Z,30.00
2022-09-28T01:27:27.373Z,28.10
2022-09-28T01:30:38.608Z,24.58
2022-09-28T01:33:55.940Z,26.90
2022-09-28T01:37:05.914Z,20.05
2022-09-28T01:40:12.791Z,20.83
2022-09-28T01:43:25.383Z,16.83
2022-09-28T01:46:45.258Z,19.30
2022-09-28T01:50:02.473Z,19.83
2022-09-28T01:53:13.394Z,21.30
2022-09-28T01:56:36.710Z,30.53
2022-09-28T01:59:45.686Z,26.63
2022-09-28T02:03:13.447Z,12.25
2022-09-28T02:06:39.378Z,9.32
2022-09-28T02:09:49.831Z,17.15
2022-09-28T02:13:01.903Z,12.90
2022-09-28T02:16:10.867Z,13.47
2022-09-28T02:19:24.298Z,10.50
2022-09-28T02:22:35.171Z,10.18
2022-09-28T02:25:52.358Z,10.05
2022-09-28T02:28:57.629Z,5.00
2022-09-28T02:32:01.485Z,6.20
2022-09-28T02:35:05.858Z,8.50
2022-09-28T02:38:12.439Z,6.75
2022-09-28T02:41:43.966Z,5.40
2022-09-28T02:44:58.294Z,6.63
2022-09-28T02:48:43.115Z,7.70
2022-09-28T02:52:25.644Z,6.05
2022-09-28T02:55:37.851Z,6.32
2022-09-28T02:58:57.332Z,7.05
2022-09-28T03:02:19.573Z,5.47
2022-09-28T03:05:30.982Z,6.90
2022-09-28T03:08:58.549Z,11.57
2022-09-28T03:12:13.168Z,11.15
2022-09-28T03:15:26.466Z,11.32
2022-09-28T03:18:33.187Z,6.00
2022-09-28T03:21:37.124Z,8.57
2022-09-28T03:24:40.824Z,7.80
2022-09-28T03:27:45.670Z,14.27
2022-09-28T03:30:51.254Z,7.18
2022-09-28T03:33:56.553Z,6.67
2022-09-28T03:37:00.565Z,5.33
2022-09-28T03:40:06.852Z,5.35
2022-09-28T03:43:10.581Z,5.82
2022-09-28T03:46:15.125Z,5.60
2022-09-28T03:49:23.452Z,7.30
2022-09-28T03:52:27.219Z,3.67
2022-09-28T03:55:31.521Z,3.33
2022-09-28T03:58:35.976Z,3.03
2022-09-28T04:01:39.834Z,4.22
2022-09-28T04:04:44.659Z,2.00
2022-09-28T04:07:48.350Z,3.70
2022-09-28T04:10:52.880Z,3.55
2022-09-28T04:13:56.836Z,3.30
2022-09-28T04:17:01.397Z,4.55
2022-09-28T04:20:07.973Z,5.37
2022-09-28T04:23:35.631Z,3.23
2022-09-28T04:26:39.568Z,3.50
2022-09-28T04:29:45.387Z,2.15
2022-09-28T04:32:50.202Z,2.75
2022-09-28T04:35:54.801Z,5.47
2022-09-28T04:38:58.453Z,2.00
2022-09-28T04:42:04.317Z,3.92
2022-09-28T04:45:09.077Z,1.95
2022-09-28T04:48:18.560Z,2.67
2022-09-28T04:51:44.975Z,4.50
2022-09-28T04:54:49.215Z,2.87
2022-09-28T04:57:52.788Z,4.60
2022-09-28T05:01:05.610Z,3.25
2022-09-28T05:04:44.572Z,5.78
2022-09-28T05:08:08.470Z,1.93
2022-09-28T05:11:14.097Z,2.23
2022-09-28T05:14:18.216Z,4.65
2022-09-28T05:17:21.951Z,3.72
2022-09-28T05:20:42.997Z,3.67
2022-09-28T05:23:48.248Z,3.63
2022-09-28T05:26:52.556Z,2.00
2022-09-28T05:29:56.375Z,4.20
2022-09-28T05:33:06.394Z,4.28
2022-09-28T05:36:27.698Z,7.00
2022-09-28T05:39:31.249Z,6.20
2022-09-28T05:42:35.390Z,3.20
2022-09-28T05:45:39.192Z,3.55
2022-09-28T05:48:43.240Z,4.13
2022-09-28T05:51:47.132Z,2.17
2022-09-28T05:54:51.360Z,5.83
2022-09-28T05:57:59.923Z,4.10
2022-09-28T06:01:03.962Z,3.90
2022-09-28T06:04:09.437Z,3.40
2022-09-28T06:07:13.729Z,2.47
2022-09-28T06:10:17.591Z,3.07
2022-09-28T06:13:21.560Z,4.50
2022-09-28T06:16:27.125Z,3.17
2022-09-28T06:19:31.343Z,2.00
2022-09-28T06:23:01.302Z,4.38
2022-09-28T06:26:05.676Z,6.83
2022-09-28T06:29:09.329Z,2.17
2022-09-28T06:32:14.904Z,4.88
2022-09-28T06:35:23.055Z,4.03
2022-09-28T06:38:27.495Z,4.53
2022-09-28T06:41:31.416Z,4.47
2022-09-28T06:44:39.162Z,3.97
2022-09-28T06:48:08.587Z,6.22
2022-09-28T06:51:16.009Z,3.67
2022-09-28T06:54:42.901Z,3.85
2022-09-28T06:58:12.982Z,3.73
2022-09-28T07:01:16.678Z,2.10
2022-09-28T07:04:35.140Z,2.85
2022-09-28T07:08:02.528Z,5.18
2022-09-28T07:11:27.708Z,4.65
2022-09-28T07:14:48.113Z,6.20
2022-09-28T07:18:02.683Z,4.00
2022-09-28T07:21:15.955Z,3.53
2022-09-28T07:24:25.904Z,8.63
2022-09-28T07:27:32.413Z,4.10
2022-09-28T07:31:07.504Z,4.23
2022-09-28T07:34:32.303Z,4.43
2022-09-28T07:37:42.212Z,4.75
2022-09-28T07:41:04.407Z,5.63
2022-09-28T07:44:08.695Z,4.82
2022-09-28T07:47:14.982Z,5.00
2022-09-28T07:50:37.532Z,6.30
2022-09-28T07:54:01.084Z,3.67
2022-09-28T07:57:19.216Z,5.47
2022-09-28T08:00:34.244Z,3.10
2022-09-28T08:03:39.810Z,6.40
2022-09-28T08:06:45.454Z,3.37
2022-09-28T08:09:50.428Z,7.88
2022-09-28T08:13:06.423Z,2.17
2022-09-28T08:20:11.074Z,22.43
2022-09-28T08:23:15.188Z,6.30
2022-09-28T08:26:19.106Z,4.80
2022-09-28T08:29:23.289Z,5.68
2022-09-28T08:32:26.753Z,4.32
2022-09-28T08:35:58.418Z,8.27
2022-09-28T08:39:20.801Z,5.87
2022-09-28T08:42:44.028Z,2.80
2022-09-28T08:46:23.764Z,1.92
2022-09-28T08:49:51.260Z,3.05
2022-09-28T08:53:54.169Z,4.50
2022-09-28T08:57:25.671Z,4.53
2022-09-28T09:00:44.705Z,2.38
2022-09-28T09:03:50.200Z,4.35
2022-09-28T09:07:18.773Z,3.22
2022-09-28T09:10:53.712Z,5.90
2022-09-28T09:14:29.837Z,5.67
2022-09-28T09:17:43.935Z,3.40
2022-09-28T09:21:10.252Z,5.82
2022-09-28T09:24:52.613Z,5.70
2022-09-28T09:28:17.887Z,3.87
2022-09-28T09:31:39.436Z,3.10
2022-09-28T09:35:23.834Z,3.65
2022-09-28T09:38:47.876Z,4.63
2022-09-28T09:42:12.403Z,5.28
2022-09-28T09:46:06.587Z,3.90
2022-09-28T09:49:52.424Z,4.93
2022-09-28T09:53:02.331Z,2.88
2022-09-28T09:56:31.777Z,3.42
2022-09-28T10:00:14.703Z,3.17
2022-09-28T10:03:33.981Z,1.90
2022-09-28T10:06:57.573Z,2.70
2022-09-28T10:10:03.066Z,5.38
2022-09-28T10:13:36.806Z,2.33
2022-09-28T10:16:53.954Z,3.75
2022-09-28T10:20:20.983Z,2.30
2022-09-28T10:23:38.550Z,3.93
2022-09-28T10:26:47.816Z,3.67
2022-09-28T10:30:16.751Z,2.78
2022-09-28T10:33:33.951Z,5.85
2022-09-28T10:36:55.614Z,4.47
2022-09-28T10:40:00.041Z,3.33
2022-09-28T10:43:27.431Z,3.88
2022-09-28T10:46:36.981Z,1.55
2022-09-28T10:49:50.300Z,1.95
2022-09-28T10:53:12.486Z,3.50
2022-09-28T10:56:40.584Z,4.70
2022-09-28T10:59:49.094Z,3.42
2022-09-28T11:03:04.152Z,3.40
2022-09-28T11:06:09.870Z,2.80
2022-09-28T11:09:33.950Z,4.27
2022-09-28T11:12:46.295Z,6.17
2022-09-28T11:15:50.763Z,4.97
2022-09-28T11:19:22.221Z,3.08
2022-09-28T11:22:42.306Z,2.50
2022-09-28T11:26:05.441Z,3.10
2022-09-28T11:29:35.409Z,3.60
2022-09-28T11:33:05.057Z,2.50
2022-09-28T11:36:14.195Z,3.35
2022-09-28T11:39:23.558Z,3.78
2022-09-28T11:42:43.349Z,4.40
2022-09-28T11:46:04.819Z,3.73
2022-09-28T11:49:36.536Z,2.55
2022-09-28T11:53:02.594Z,2.72
2022-09-28T11:56:20.000Z,3.00
2022-09-28T11:59:58.994Z,2.60
2022-09-28T12:03:16.241Z,3.57
2022-09-28T12:06:25.934Z,6.43
2022-09-28T12:09:54.283Z,2.63
2022-09-28T12:13:06.761Z,4.38
2022-09-28T12:20:20.673Z,4.00
2022-09-28T12:23:35.153Z,2.97
2022-09-28T12:27:10.762Z,2.22
2022-09-28T12:30:28.275Z,4.28
2022-09-28T12:33:32.886Z,3.40
2022-09-28T12:36:42.446Z,2.53
2022-09-28T12:40:23.410Z,3.58
2022-09-28T12:43:40.900Z,4.43
2022-09-28T12:47:06.025Z,4.78
2022-09-28T12:50:53.997Z,6.10
2022-09-28T12:54:04.888Z,7.63
2022-09-28T12:57:38.175Z,6.60
2022-09-28T13:01:15.872Z,4.72
2022-09-28T13:05:07.488Z,3.58
2022-09-28T13:08:42.655Z,3.57
2022-09-28T13:11:55.327Z,5.67
2022-09-28T13:15:17.629Z,3.30
2022-09-28T13:18:39.637Z,2.80
2022-09-28T13:22:41.027Z,2.28
2022-09-28T13:26:15.026Z,2.07
2022-09-28T13:29:20.676Z,1.90
2022-09-28T13:32:26.895Z,4.65
2022-09-28T13:35:29.973Z,3.20
2022-09-28T13:38:48.456Z,1.98
2022-09-28T13:41:54.818Z,2.77
2022-09-28T13:45:12.805Z,1.87
2022-09-28T13:48:43.123Z,2.00
2022-09-28T13:52:07.335Z,1.88
2022-09-28T13:55:25.493Z,7.07
2022-09-28T13:58:39.475Z,1.93
2022-09-28T14:01:56.419Z,2.23
2022-09-28T14:05:28.152Z,3.67
2022-09-28T14:08:35.181Z,3.47
2022-09-28T14:11:43.022Z,3.17
2022-09-28T14:14:51.056Z,3.53
2022-09-28T14:18:06.269Z,2.70
2022-09-28T14:21:33.464Z,2.65
2022-09-28T14:24:54.782Z,2.22
2022-09-28T14:28:07.215Z,27.73
2022-09-28T14:31:22.925Z,4.93
2022-09-28T14:34:27.545Z,5.47
2022-09-28T14:37:56.113Z,3.08
2022-09-28T14:41:11.458Z,7.32
2022-09-28T14:44:19.966Z,6.43
2022-09-28T14:47:35.780Z,5.23
2022-09-28T14:50:39.891Z,5.83
2022-09-28T14:53:43.614Z,6.03
2022-09-28T14:56:49.392Z,3.53
2022-09-28T14:59:54.958Z,4.53
2022-09-28T15:03:03.043Z,4.73
2022-09-28T15:06:06.401Z,3.27
2022-09-28T15:09:28.059Z,4.13
2022-09-28T15:12:32.512Z,5.47
2022-09-28T15:15:40.660Z,5.00
2022-09-28T15:18:59.808Z,4.50
2022-09-28T15:22:03.196Z,4.27
2022-09-28T15:25:15.916Z,4.15
2022-09-28T15:28:24.555Z,10.25
2022-09-28T15:31:31.795Z,8.57
2022-09-28T15:34:52.341Z,11.13
2022-09-28T15:37:56.805Z,20.87
2022-09-28T15:41:05.132Z,12.32
2022-09-28T15:44:39.660Z,4.72
2022-09-28T15:47:45.905Z,5.53
2022-09-28T15:51:00.082Z,5.33
2022-09-28T15:54:12.002Z,6.43
2022-09-28T15:57:48.563Z,6.00
2022-09-28T16:01:12.597Z,7.65
2022-09-28T16:04:38.272Z,8.30
2022-09-28T16:07:42.212Z,6.90
2022-09-28T16:10:57.581Z,9.73
2022-09-28T16:14:09.377Z,9.95
2022-09-28T16:17:19.977Z,16.48
2022-09-28T16:20:32.323Z,10.52
2022-09-28T16:23:37.427Z,12.33
2022-09-28T16:26:40.980Z,12.17
2022-09-28T16:29:45.589Z,13.38
2022-09-28T16:32:52.629Z,13.73
2022-09-28T16:35:55.985Z,16.63
2022-09-28T16:38:59.498Z,12.87
2022-09-28T16:42:12.283Z,18.90
2022-09-28T16:45:21.012Z,13.88
2022-09-28T16:48:30.316Z,15.75
2022-09-28T16:51:34.169Z,13.23
2022-09-28T16:54:56.248Z,6.13
2022-09-28T16:57:59.426Z,5.77
2022-09-28T17:01:03.361Z,6.07
2022-09-28T17:04:07.994Z,4.85
2022-09-28T17:07:15.283Z,5.00
2022-09-28T17:10:27.038Z,3.53
2022-09-28T17:13:34.167Z,2.93
2022-09-28T17:20:26.218Z,5.93
2022-09-28T17:23:29.762Z,3.00
2022-09-28T17:26:35.522Z,4.27
2022-09-28T17:29:38.959Z,5.17
2022-09-28T17:32:45.897Z,4.50
2022-09-28T17:35:52.227Z,5.80
2022-09-28T17:38:56.109Z,4.97
2022-09-28T17:41:59.663Z,4.80
2022-09-28T17:45:03.934Z,4.77
2022-09-28T17:48:18.383Z,3.75
2022-09-28T17:51:23.345Z,4.07
2022-09-28T17:54:26.997Z,3.72
2022-09-28T17:57:30.870Z,3.10
2022-09-28T18:00:34.600Z,4.50
2022-09-28T18:03:39.231Z,4.68
2022-09-28T18:06:43.759Z,4.72
2022-09-28T18:09:47.650Z,4.07
2022-09-28T18:12:51.600Z,4.63
2022-09-28T18:15:56.914Z,4.37
2022-09-28T18:19:00.752Z,6.05
2022-09-28T18:22:03.976Z,10.50
2022-09-28T18:25:08.148Z,5.22
2022-09-28T18:28:13.266Z,5.47
2022-09-28T18:31:19.481Z,7.10
2022-09-28T18:34:23.512Z,5.60
2022-09-28T18:37:26.707Z,4.93
2022-09-28T18:40:30.540Z,4.65
2022-09-28T18:43:36.330Z,5.03
2022-09-28T18:46:41.735Z,5.40
2022-09-28T18:49:46.863Z,3.92
2022-09-28T18:52:50.768Z,3.85
2022-09-28T18:55:53.837Z,5.65
2022-09-28T18:59:00.559Z,4.50
2022-09-28T19:02:04.187Z,3.53
2022-09-28T19:05:07.782Z,3.20
2022-09-28T19:08:11.517Z,3.17
2022-09-28T19:11:16.721Z,2.72
2022-09-28T19:14:20.124Z,2.30
2022-09-28T19:17:23.610Z,2.60
2022-09-28T19:20:27.471Z,2.83
2022-09-28T19:23:30.297Z,2.90
2022-09-28T19:26:33.877Z,3.13
2022-09-28T19:29:37.044Z,3.23
2022-09-28T19:32:39.893Z,5.37
2022-09-28T19:35:43.035Z,4.22
2022-09-28T19:38:46.810Z,3.75
2022-09-28T19:41:53.251Z,6.47
2022-09-28T19:44:56.896Z,4.00
2022-09-28T19:48:02.420Z,3.40
2022-09-28T19:51:07.781Z,2.95
2022-09-28T19:54:12.207Z,2.40
2022-09-28T19:57:16.331Z,3.42
2022-09-28T20:00:19.949Z,4.07
2022-09-28T20:03:26.091Z,2.57
2022-09-28T20:06:29.826Z,2.95
2022-09-28T20:09:34.170Z,4.95
2022-09-28T20:12:37.575Z,3.58
2022-09-28T20:15:42.389Z,5.57
2022-09-28T20:18:50.773Z,5.10
2022-09-28T20:21:53.965Z,6.25
2022-09-28T20:24:56.769Z,4.75
2022-09-28T20:27:59.873Z,5.90
2022-09-28T20:31:13.342Z,3.33
2022-09-28T20:34:17.311Z,8.23
2022-09-28T20:37:20.465Z,4.35
2022-09-28T20:40:23.757Z,3.65
2022-09-28T20:43:28.392Z,3.17
2022-09-28T20:46:31.633Z,1.83
2022-09-28T20:49:35.212Z,2.13
2022-09-28T20:52:39.092Z,2.45
2022-09-28T20:55:42.128Z,2.00
2022-09-28T20:58:45.994Z,1.75
2022-09-28T21:01:49.143Z,1.73
2022-09-28T21:04:52.052Z,2.40
2022-09-28T21:07:55.589Z,4.97
2022-09-28T21:10:59.882Z,4.38
2022-09-28T21:14:06.223Z,3.88
2022-09-28T21:17:11.740Z,2.77
2022-09-28T21:20:15.350Z,1.97
2022-09-28T21:23:24.524Z,2.22
2022-09-28T21:26:30.544Z,3.05
2022-09-28T21:29:34.433Z,3.10
2022-09-28T21:32:38.882Z,2.33
2022-09-28T21:35:42.649Z,3.87
2022-09-28T21:38:46.151Z,1.73
2022-09-28T21:41:50.298Z,2.38
2022-09-28T21:44:57.418Z,2.08
2022-09-28T21:48:03.397Z,1.67
2022-09-28T21:51:09.664Z,1.67
2022-09-28T21:54:13.116Z,1.55
2022-09-28T21:57:18.753Z,1.33
2022-09-28T22:00:26.032Z,1.88
2022-09-28T22:03:31.351Z,3.20
2022-09-28T22:06:34.907Z,2.23
2022-09-28T22:09:37.856Z,2.42
2022-09-28T22:12:41.310Z,1.58
2022-09-28T22:15:44.834Z,2.70
2022-09-28T22:18:48.925Z,3.57
2022-09-28T22:21:51.819Z,14.63
2022-09-28T22:24:55.912Z,7.43
2022-09-28T22:27:58.791Z,3.60
2022-09-28T22:31:02.558Z,5.25
2022-09-28T22:34:06.329Z,4.30
2022-09-28T22:37:10.014Z,2.93
2022-09-28T22:40:13.566Z,2.92
2022-09-28T22:43:17.259Z,4.20
2022-09-28T22:46:23.414Z,1.85
2022-09-28T22:49:26.853Z,6.17
2022-09-28T22:52:30.039Z,2.43
2022-09-28T22:55:35.848Z,2.83
2022-09-28T22:58:39.816Z,2.13
2022-09-28T23:01:42.675Z,2.40
2022-09-28T23:04:45.839Z,2.07
2022-09-28T23:07:48.584Z,2.17
2022-09-28T23:10:52.005Z,1.92
2022-09-28T23:13:58.084Z,3.75
2022-09-28T23:17:00.893Z,6.35
2022-09-28T23:20:04.680Z,4.53
2022-09-28T23:23:08.026Z,6.37
2022-09-28T23:26:14.227Z,2.30
2022-09-28T23:29:17.621Z,2.08
2022-09-28T23:32:21.181Z,5.30
2022-09-28T23:35:24.600Z,3.77
2022-09-28T23:38:28.364Z,4.23
2022-09-28T23:41:31.893Z,4.03
2022-09-28T23:44:35.640Z,3.50
2022-09-28T23:47:39.335Z,7.78
2022-09-28T23:50:44.108Z,9.33
2022-09-28T23:53:47.301Z,9.77
2022-09-28T23:56:51.514Z,6.88
2022-09-28T23:59:54.326Z,4.28
